sensor_id;sensor_type;location;lat;lon;timestamp;P1;durP1;ratioP1;P2;durP2;ratioP2
42700;SDS011;28316;49.504;8.526;2023-04-24T00:00:56;0.65;;;0.40;;
42700;SDS011;28316;49.504;8.526;2023-04-24T00:03:23;2.00;;;0.85;;
42700;SDS011;28316;49.504;8.526;2023-04-24T00:05:49;0.88;;;0.57;;
42700;SDS011;28316;49.504;8.526;2023-04-24T00:08:16;2.15;;;0.82;;
42700;SDS011;28316;49.504;8.526;2023-04-24T00:10:42;1.15;;;0.82;;
42700;SDS011;28316;49.504;8.526;2023-04-24T00:13:08;1.35;;;0.40;;
42700;SDS011;28316;49.504;8.526;2023-04-24T00:15:34;1.75;;;0.70;;
42700;SDS011;28316;49.504;8.526;2023-04-24T00:18:00;1.50;;;0.82;;
42700;SDS011;28316;49.504;8.526;2023-04-24T00:20:26;1.02;;;0.60;;
42700;SDS011;28316;49.504;8.526;2023-04-24T00:25:23;0.65;;;0.35;;
42700;SDS011;28316;49.504;8.526;2023-04-24T00:27:49;0.20;;;0.20;;
42700;SDS011;28316;49.504;8.526;2023-04-24T00:30:15;0.52;;;0.47;;
42700;SDS011;28316;49.504;8.526;2023-04-24T00:32:41;0.85;;;0.52;;
42700;SDS011;28316;49.504;8.526;2023-04-24T00:35:06;0.20;;;0.17;;
42700;SDS011;28316;49.504;8.526;2023-04-24T00:37:32;1.17;;;0.30;;
42700;SDS011;28316;49.504;8.526;2023-04-24T00:39:58;3.17;;;0.70;;
42700;SDS011;28316;49.504;8.526;2023-04-24T00:42:24;0.43;;;0.40;;
42700;SDS011;28316;49.504;8.526;2023-04-24T00:44:50;0.93;;;0.40;;
42700;SDS011;28316;49.504;8.526;2023-04-24T00:47:16;2.33;;;0.50;;
42700;SDS011;28316;49.504;8.526;2023-04-24T00:49:43;1.65;;;0.75;;
42700;SDS011;28316;49.504;8.526;2023-04-24T00:52:09;1.65;;;0.60;;
42700;SDS011;28316;49.504;8.526;2023-04-24T00:54:35;0.68;;;0.50;;
42700;SDS011;28316;49.504;8.526;2023-04-24T00:57:04;4.22;;;0.88;;
42700;SDS011;28316;49.504;8.526;2023-04-24T00:59:30;0.65;;;0.30;;
42700;SDS011;28316;49.504;8.526;2023-04-24T01:01:56;0.60;;;0.43;;
42700;SDS011;28316;49.504;8.526;2023-04-24T01:04:23;1.52;;;0.57;;
42700;SDS011;28316;49.504;8.526;2023-04-24T01:06:51;1.48;;;0.35;;
42700;SDS011;28316;49.504;8.526;2023-04-24T01:09:17;0.65;;;0.30;;
42700;SDS011;28316;49.504;8.526;2023-04-24T01:11:44;2.03;;;0.73;;
42700;SDS011;28316;49.504;8.526;2023-04-24T01:14:09;0.50;;;0.40;;
42700;SDS011;28316;49.504;8.526;2023-04-24T01:16:36;2.15;;;0.60;;
42700;SDS011;28316;49.504;8.526;2023-04-24T01:19:03;2.17;;;0.60;;
42700;SDS011;28316;49.504;8.526;2023-04-24T01:21:31;0.47;;;0.38;;
42700;SDS011;28316;49.504;8.526;2023-04-24T01:24:02;0.80;;;0.50;;
42700;SDS011;28316;49.504;8.526;2023-04-24T01:26:30;0.60;;;0.43;;
42700;SDS011;28316;49.504;8.526;2023-04-24T01:28:56;7.07;;;0.50;;
42700;SDS011;28316;49.504;8.526;2023-04-24T01:31:22;0.82;;;0.50;;
42700;SDS011;28316;49.504;8.526;2023-04-24T01:33:49;1.02;;;0.40;;
42700;SDS011;28316;49.504;8.526;2023-04-24T01:36:16;12.30;;;0.73;;
42700;SDS011;28316;49.504;8.526;2023-04-24T01:38:42;0.30;;;0.30;;
42700;SDS011;28316;49.504;8.526;2023-04-24T01:41:07;2.35;;;0.55;;
42700;SDS011;28316;49.504;8.526;2023-04-24T01:43:33;0.77;;;0.63;;
42700;SDS011;28316;49.504;8.526;2023-04-24T01:45:59;1.33;;;0.50;;
42700;SDS011;28316;49.504;8.526;2023-04-24T01:48:25;5.57;;;0.98;;
42700;SDS011;28316;49.504;8.526;2023-04-24T01:50:51;3.97;;;0.75;;
42700;SDS011;28316;49.504;8.526;2023-04-24T01:53:17;5.35;;;0.63;;
42700;SDS011;28316;49.504;8.526;2023-04-24T01:55:42;0.95;;;0.50;;
42700;SDS011;28316;49.504;8.526;2023-04-24T01:58:08;1.63;;;0.73;;
42700;SDS011;28316;49.504;8.526;2023-04-24T02:00:34;1.95;;;0.50;;
42700;SDS011;28316;49.504;8.526;2023-04-24T02:03:00;0.50;;;0.40;;
42700;SDS011;28316;49.504;8.526;2023-04-24T02:05:27;1.65;;;0.52;;
42700;SDS011;28316;49.504;8.526;2023-04-24T02:07:53;0.43;;;0.40;;
42700;SDS011;28316;49.504;8.526;2023-04-24T02:10:19;1.17;;;0.73;;
42700;SDS011;28316;49.504;8.526;2023-04-24T02:12:44;1.35;;;0.47;;
42700;SDS011;28316;49.504;8.526;2023-04-24T02:15:10;0.82;;;0.50;;
42700;SDS011;28316;49.504;8.526;2023-04-24T02:17:37;0.73;;;0.50;;
42700;SDS011;28316;49.504;8.526;2023-04-24T02:20:04;2.00;;;1.15;;
42700;SDS011;28316;49.504;8.526;2023-04-24T02:22:31;5.20;;;0.65;;
42700;SDS011;28316;49.504;8.526;2023-04-24T02:24:57;0.50;;;0.50;;
42700;SDS011;28316;49.504;8.526;2023-04-24T02:27:23;0.70;;;0.40;;
42700;SDS011;28316;49.504;8.526;2023-04-24T02:29:48;0.65;;;0.52;;
42700;SDS011;28316;49.504;8.526;2023-04-24T02:32:14;1.20;;;0.75;;
42700;SDS011;28316;49.504;8.526;2023-04-24T02:34:40;5.40;;;0.47;;
42700;SDS011;28316;49.504;8.526;2023-04-24T02:37:06;0.45;;;0.32;;
42700;SDS011;28316;49.504;8.526;2023-04-24T02:39:31;0.40;;;0.30;;
42700;SDS011;28316;49.504;8.526;2023-04-24T02:41:57;0.50;;;0.30;;
42700;SDS011;28316;49.504;8.526;2023-04-24T02:44:23;5.43;;;0.90;;
42700;SDS011;28316;49.504;8.526;2023-04-24T02:46:49;0.60;;;0.40;;
42700;SDS011;28316;49.504;8.526;2023-04-24T02:49:14;1.63;;;0.60;;
42700;SDS011;28316;49.504;8.526;2023-04-24T02:51:40;0.30;;;0.28;;
42700;SDS011;28316;49.504;8.526;2023-04-24T02:54:07;0.55;;;0.40;;
42700;SDS011;28316;49.504;8.526;2023-04-24T02:56:34;0.60;;;0.35;;
42700;SDS011;28316;49.504;8.526;2023-04-24T02:59:00;0.52;;;0.40;;
42700;SDS011;28316;49.504;8.526;2023-04-24T03:01:26;0.55;;;0.50;;
42700;SDS011;28316;49.504;8.526;2023-04-24T03:03:52;2.67;;;0.80;;
42700;SDS011;28316;49.504;8.526;2023-04-24T03:06:17;0.68;;;0.50;;
42700;SDS011;28316;49.504;8.526;2023-04-24T03:08:43;0.47;;;0.40;;
42700;SDS011;28316;49.504;8.526;2023-04-24T03:11:09;1.42;;;0.77;;
42700;SDS011;28316;49.504;8.526;2023-04-24T03:13:34;2.47;;;0.70;;
42700;SDS011;28316;49.504;8.526;2023-04-24T03:16:00;2.15;;;0.63;;
42700;SDS011;28316;49.504;8.526;2023-04-24T03:18:26;3.45;;;1.15;;
42700;SDS011;28316;49.504;8.526;2023-04-24T03:20:52;1.50;;;0.55;;
42700;SDS011;28316;49.504;8.526;2023-04-24T03:23:17;1.10;;;0.75;;
42700;SDS011;28316;49.504;8.526;2023-04-24T03:25:44;1.35;;;0.45;;
42700;SDS011;28316;49.504;8.526;2023-04-24T03:28:10;1.67;;;0.98;;
42700;SDS011;28316;49.504;8.526;2023-04-24T03:30:36;1.10;;;0.77;;
42700;SDS011;28316;49.504;8.526;2023-04-24T03:33:01;1.15;;;0.80;;
42700;SDS011;28316;49.504;8.526;2023-04-24T03:35:27;2.20;;;0.88;;
42700;SDS011;28316;49.504;8.526;2023-04-24T03:37:53;1.05;;;0.60;;
42700;SDS011;28316;49.504;8.526;2023-04-24T03:40:18;1.05;;;0.60;;
42700;SDS011;28316;49.504;8.526;2023-04-24T03:42:44;0.93;;;0.40;;
42700;SDS011;28316;49.504;8.526;2023-04-24T03:45:10;3.45;;;0.80;;
42700;SDS011;28316;49.504;8.526;2023-04-24T03:47:35;0.95;;;0.68;;
42700;SDS011;28316;49.504;8.526;2023-04-24T03:50:01;1.92;;;0.77;;
42700;SDS011;28316;49.504;8.526;2023-04-24T03:52:27;0.85;;;0.60;;
42700;SDS011;28316;49.504;8.526;2023-04-24T03:54:53;1.35;;;0.77;;
42700;SDS011;28316;49.504;8.526;2023-04-24T03:57:18;1.73;;;0.65;;
42700;SDS011;28316;49.504;8.526;2023-04-24T03:59:44;0.90;;;0.55;;
42700;SDS011;28316;49.504;8.526;2023-04-24T04:02:10;0.80;;;0.50;;
42700;SDS011;28316;49.504;8.526;2023-04-24T04:04:36;3.28;;;0.80;;
42700;SDS011;28316;49.504;8.526;2023-04-24T04:07:02;1.75;;;0.75;;
42700;SDS011;28316;49.504;8.526;2023-04-24T04:09:28;4.75;;;0.93;;
42700;SDS011;28316;49.504;8.526;2023-04-24T04:11:54;1.33;;;0.77;;
42700;SDS011;28316;49.504;8.526;2023-04-24T04:14:20;0.80;;;0.50;;
42700;SDS011;28316;49.504;8.526;2023-04-24T04:16:47;3.88;;;0.95;;
42700;SDS011;28316;49.504;8.526;2023-04-24T04:19:12;1.95;;;0.80;;
42700;SDS011;28316;49.504;8.526;2023-04-24T04:21:38;1.27;;;0.82;;
42700;SDS011;28316;49.504;8.526;2023-04-24T04:24:04;1.83;;;0.75;;
42700;SDS011;28316;49.504;8.526;2023-04-24T04:26:30;0.82;;;0.60;;
42700;SDS011;28316;49.504;8.526;2023-04-24T04:28:57;1.13;;;0.88;;
42700;SDS011;28316;49.504;8.526;2023-04-24T04:31:25;2.45;;;1.60;;
42700;SDS011;28316;49.504;8.526;2023-04-24T04:33:51;1.33;;;0.80;;
42700;SDS011;28316;49.504;8.526;2023-04-24T04:36:17;0.98;;;0.75;;
42700;SDS011;28316;49.504;8.526;2023-04-24T04:38:42;1.08;;;0.73;;
42700;SDS011;28316;49.504;8.526;2023-04-24T04:41:09;1.70;;;0.93;;
42700;SDS011;28316;49.504;8.526;2023-04-24T04:43:35;1.60;;;0.93;;
42700;SDS011;28316;49.504;8.526;2023-04-24T04:46:03;1.63;;;0.95;;
42700;SDS011;28316;49.504;8.526;2023-04-24T04:48:28;9.90;;;1.15;;
42700;SDS011;28316;49.504;8.526;2023-04-24T04:50:56;1.00;;;0.63;;
42700;SDS011;28316;49.504;8.526;2023-04-24T04:53:23;2.28;;;1.20;;
42700;SDS011;28316;49.504;8.526;2023-04-24T04:55:48;4.85;;;1.17;;
42700;SDS011;28316;49.504;8.526;2023-04-24T04:58:14;2.00;;;1.25;;
42700;SDS011;28316;49.504;8.526;2023-04-24T05:00:40;2.55;;;1.13;;
42700;SDS011;28316;49.504;8.526;2023-04-24T05:03:06;5.22;;;1.52;;
42700;SDS011;28316;49.504;8.526;2023-04-24T05:05:32;3.58;;;1.13;;
42700;SDS011;28316;49.504;8.526;2023-04-24T05:07:58;1.75;;;1.02;;
42700;SDS011;28316;49.504;8.526;2023-04-24T05:10:23;2.17;;;1.20;;
42700;SDS011;28316;49.504;8.526;2023-04-24T05:12:49;1.95;;;1.10;;
42700;SDS011;28316;49.504;8.526;2023-04-24T05:15:15;2.13;;;0.93;;
42700;SDS011;28316;49.504;8.526;2023-04-24T05:17:41;1.85;;;1.02;;
42700;SDS011;28316;49.504;8.526;2023-04-24T05:20:06;1.48;;;0.93;;
42700;SDS011;28316;49.504;8.526;2023-04-24T05:22:33;4.88;;;1.40;;
42700;SDS011;28316;49.504;8.526;2023-04-24T05:24:59;2.35;;;1.13;;
42700;SDS011;28316;49.504;8.526;2023-04-24T05:27:25;1.77;;;1.30;;
42700;SDS011;28316;49.504;8.526;2023-04-24T05:29:50;2.15;;;1.30;;
42700;SDS011;28316;49.504;8.526;2023-04-24T05:32:16;1.65;;;0.95;;
42700;SDS011;28316;49.504;8.526;2023-04-24T05:34:42;2.67;;;1.60;;
42700;SDS011;28316;49.504;8.526;2023-04-24T05:37:08;2.47;;;1.23;;
42700;SDS011;28316;49.504;8.526;2023-04-24T05:39:35;7.85;;;1.80;;
42700;SDS011;28316;49.504;8.526;2023-04-24T05:42:01;3.40;;;1.80;;
42700;SDS011;28316;49.504;8.526;2023-04-24T05:44:29;2.13;;;1.45;;
42700;SDS011;28316;49.504;8.526;2023-04-24T05:46:55;1.92;;;1.20;;
42700;SDS011;28316;49.504;8.526;2023-04-24T05:49:21;3.55;;;2.08;;
42700;SDS011;28316;49.504;8.526;2023-04-24T05:51:47;2.85;;;1.90;;
42700;SDS011;28316;49.504;8.526;2023-04-24T05:54:13;3.92;;;1.55;;
42700;SDS011;28316;49.504;8.526;2023-04-24T05:56:39;3.45;;;1.70;;
42700;SDS011;28316;49.504;8.526;2023-04-24T05:59:05;4.32;;;1.55;;
42700;SDS011;28316;49.504;8.526;2023-04-24T06:01:32;4.30;;;2.03;;
42700;SDS011;28316;49.504;8.526;2023-04-24T06:03:58;3.63;;;1.70;;
42700;SDS011;28316;49.504;8.526;2023-04-24T06:06:24;4.03;;;1.85;;
42700;SDS011;28316;49.504;8.526;2023-04-24T06:08:50;3.70;;;1.98;;
42700;SDS011;28316;49.504;8.526;2023-04-24T06:11:16;6.47;;;1.63;;
42700;SDS011;28316;49.504;8.526;2023-04-24T06:13:42;2.38;;;1.60;;
42700;SDS011;28316;49.504;8.526;2023-04-24T06:16:08;2.22;;;1.23;;
42700;SDS011;28316;49.504;8.526;2023-04-24T06:18:34;3.58;;;2.40;;
42700;SDS011;28316;49.504;8.526;2023-04-24T06:20:59;5.63;;;2.30;;
42700;SDS011;28316;49.504;8.526;2023-04-24T06:23:26;3.55;;;1.40;;
42700;SDS011;28316;49.504;8.526;2023-04-24T06:25:51;3.50;;;1.77;;
42700;SDS011;28316;49.504;8.526;2023-04-24T06:28:17;2.78;;;1.38;;
42700;SDS011;28316;49.504;8.526;2023-04-24T06:30:43;3.30;;;1.27;;
42700;SDS011;28316;49.504;8.526;2023-04-24T06:33:09;2.63;;;1.60;;
42700;SDS011;28316;49.504;8.526;2023-04-24T06:35:35;1.40;;;0.98;;
42700;SDS011;28316;49.504;8.526;2023-04-24T06:38:02;1.88;;;1.33;;
42700;SDS011;28316;49.504;8.526;2023-04-24T06:40:29;2.28;;;1.30;;
42700;SDS011;28316;49.504;8.526;2023-04-24T06:42:55;13.95;;;1.77;;
42700;SDS011;28316;49.504;8.526;2023-04-24T06:45:22;5.22;;;1.40;;
42700;SDS011;28316;49.504;8.526;2023-04-24T06:47:48;2.88;;;1.40;;
42700;SDS011;28316;49.504;8.526;2023-04-24T06:50:14;2.22;;;1.15;;
42700;SDS011;28316;49.504;8.526;2023-04-24T06:52:40;2.45;;;1.25;;
42700;SDS011;28316;49.504;8.526;2023-04-24T06:55:06;2.00;;;1.30;;
42700;SDS011;28316;49.504;8.526;2023-04-24T06:57:32;1.40;;;0.82;;
42700;SDS011;28316;49.504;8.526;2023-04-24T06:59:58;1.67;;;0.90;;
42700;SDS011;28316;49.504;8.526;2023-04-24T07:02:24;3.72;;;2.50;;
42700;SDS011;28316;49.504;8.526;2023-04-24T07:04:50;5.10;;;1.08;;
42700;SDS011;28316;49.504;8.526;2023-04-24T07:07:16;1.55;;;0.90;;
42700;SDS011;28316;49.504;8.526;2023-04-24T07:09:42;1.15;;;0.60;;
42700;SDS011;28316;49.504;8.526;2023-04-24T07:12:08;1.80;;;1.00;;
42700;SDS011;28316;49.504;8.526;2023-04-24T07:14:35;1.48;;;0.80;;
42700;SDS011;28316;49.504;8.526;2023-04-24T07:17:02;2.30;;;1.05;;
42700;SDS011;28316;49.504;8.526;2023-04-24T07:19:29;3.33;;;0.80;;
42700;SDS011;28316;49.504;8.526;2023-04-24T07:21:55;3.15;;;1.05;;
42700;SDS011;28316;49.504;8.526;2023-04-24T07:24:23;1.13;;;0.80;;
42700;SDS011;28316;49.504;8.526;2023-04-24T07:26:50;2.13;;;0.82;;
42700;SDS011;28316;49.504;8.526;2023-04-24T07:29:17;1.05;;;0.68;;
42700;SDS011;28316;49.504;8.526;2023-04-24T07:31:44;1.05;;;0.70;;
42700;SDS011;28316;49.504;8.526;2023-04-24T07:34:10;0.80;;;0.55;;
42700;SDS011;28316;49.504;8.526;2023-04-24T07:36:36;1.10;;;0.50;;
42700;SDS011;28316;49.504;8.526;2023-04-24T07:39:03;0.82;;;0.63;;
42700;SDS011;28316;49.504;8.526;2023-04-24T07:41:31;0.68;;;0.45;;
42700;SDS011;28316;49.504;8.526;2023-04-24T07:43:57;0.52;;;0.30;;
42700;SDS011;28316;49.504;8.526;2023-04-24T07:46:23;1.38;;;0.70;;
42700;SDS011;28316;49.504;8.526;2023-04-24T07:48:49;0.80;;;0.63;;
42700;SDS011;28316;49.504;8.526;2023-04-24T07:51:15;1.25;;;0.60;;
42700;SDS011;28316;49.504;8.526;2023-04-24T07:53:42;1.02;;;0.60;;
42700;SDS011;28316;49.504;8.526;2023-04-24T07:56:08;2.80;;;1.05;;
42700;SDS011;28316;49.504;8.526;2023-04-24T07:58:34;1.40;;;0.80;;
42700;SDS011;28316;49.504;8.526;2023-04-24T08:01:00;1.00;;;0.75;;
42700;SDS011;28316;49.504;8.526;2023-04-24T08:03:26;2.88;;;0.70;;
42700;SDS011;28316;49.504;8.526;2023-04-24T08:05:52;1.13;;;0.85;;
42700;SDS011;28316;49.504;8.526;2023-04-24T08:08:20;3.65;;;1.00;;
42700;SDS011;28316;49.504;8.526;2023-04-24T08:10:47;1.52;;;0.75;;
42700;SDS011;28316;49.504;8.526;2023-04-24T08:13:13;1.92;;;1.05;;
42700;SDS011;28316;49.504;8.526;2023-04-24T08:15:38;1.58;;;0.80;;
42700;SDS011;28316;49.504;8.526;2023-04-24T08:18:04;1.00;;;0.52;;
42700;SDS011;28316;49.504;8.526;2023-04-24T08:20:30;1.02;;;0.68;;
42700;SDS011;28316;49.504;8.526;2023-04-24T08:22:56;0.82;;;0.60;;
42700;SDS011;28316;49.504;8.526;2023-04-24T08:25:22;3.15;;;1.00;;
42700;SDS011;28316;49.504;8.526;2023-04-24T08:27:49;1.17;;;0.70;;
42700;SDS011;28316;49.504;8.526;2023-04-24T08:30:16;0.63;;;0.45;;
42700;SDS011;28316;49.504;8.526;2023-04-24T08:32:42;4.57;;;0.95;;
42700;SDS011;28316;49.504;8.526;2023-04-24T08:35:08;1.27;;;0.70;;
42700;SDS011;28316;49.504;8.526;2023-04-24T08:37:34;3.60;;;1.15;;
42700;SDS011;28316;49.504;8.526;2023-04-24T08:40:00;1.83;;;0.98;;
42700;SDS011;28316;49.504;8.526;2023-04-24T08:42:32;1.02;;;0.75;;
42700;SDS011;28316;49.504;8.526;2023-04-24T08:45:00;1.05;;;0.85;;
42700;SDS011;28316;49.504;8.526;2023-04-24T08:47:27;3.28;;;1.02;;
42700;SDS011;28316;49.504;8.526;2023-04-24T08:49:54;1.63;;;0.98;;
42700;SDS011;28316;49.504;8.526;2023-04-24T08:52:22;1.00;;;0.90;;
42700;SDS011;28316;49.504;8.526;2023-04-24T08:54:48;3.25;;;0.88;;
42700;SDS011;28316;49.504;8.526;2023-04-24T08:57:15;2.60;;;1.30;;
42700;SDS011;28316;49.504;8.526;2023-04-24T08:59:41;1.63;;;0.82;;
42700;SDS011;28316;49.504;8.526;2023-04-24T09:02:09;0.60;;;0.45;;
42700;SDS011;28316;49.504;8.526;2023-04-24T09:04:36;4.05;;;1.00;;
42700;SDS011;28316;49.504;8.526;2023-04-24T09:07:02;0.82;;;0.52;;
42700;SDS011;28316;49.504;8.526;2023-04-24T09:09:31;1.52;;;0.90;;
42700;SDS011;28316;49.504;8.526;2023-04-24T09:11:58;2.78;;;0.77;;
42700;SDS011;28316;49.504;8.526;2023-04-24T09:14:25;3.70;;;1.00;;
42700;SDS011;28316;49.504;8.526;2023-04-24T09:16:52;1.70;;;0.90;;
42700;SDS011;28316;49.504;8.526;2023-04-24T09:19:18;2.08;;;0.93;;
42700;SDS011;28316;49.504;8.526;2023-04-24T09:21:46;1.75;;;1.00;;
42700;SDS011;28316;49.504;8.526;2023-04-24T09:24:17;1.67;;;0.70;;
42700;SDS011;28316;49.504;8.526;2023-04-24T09:26:47;1.40;;;0.90;;
42700;SDS011;28316;49.504;8.526;2023-04-24T09:29:22;2.92;;;0.80;;
42700;SDS011;28316;49.504;8.526;2023-04-24T09:31:47;4.03;;;0.75;;
42700;SDS011;28316;49.504;8.526;2023-04-24T09:34:13;3.42;;;1.17;;
42700;SDS011;28316;49.504;8.526;2023-04-24T09:36:39;10.10;;;1.48;;
42700;SDS011;28316;49.504;8.526;2023-04-24T09:39:08;1.05;;;0.73;;
42700;SDS011;28316;49.504;8.526;2023-04-24T09:41:44;2.08;;;1.30;;
42700;SDS011;28316;49.504;8.526;2023-04-24T09:44:17;0.80;;;0.63;;
42700;SDS011;28316;49.504;8.526;2023-04-24T09:46:52;1.52;;;1.00;;
42700;SDS011;28316;49.504;8.526;2023-04-24T09:49:23;1.13;;;0.68;;
42700;SDS011;28316;49.504;8.526;2023-04-24T09:51:52;2.38;;;1.08;;
42700;SDS011;28316;49.504;8.526;2023-04-24T09:54:34;1.90;;;0.93;;
42700;SDS011;28316;49.504;8.526;2023-04-24T09:57:04;7.07;;;0.93;;
42700;SDS011;28316;49.504;8.526;2023-04-24T09:59:32;0.77;;;0.57;;
42700;SDS011;28316;49.504;8.526;2023-04-24T10:01:59;5.43;;;0.65;;
42700;SDS011;28316;49.504;8.526;2023-04-24T10:04:26;1.83;;;1.17;;
42700;SDS011;28316;49.504;8.526;2023-04-24T10:06:54;1.52;;;0.90;;
42700;SDS011;28316;49.504;8.526;2023-04-24T10:09:22;1.30;;;0.80;;
42700;SDS011;28316;49.504;8.526;2023-04-24T10:11:52;0.65;;;0.60;;
42700;SDS011;28316;49.504;8.526;2023-04-24T10:14:20;1.33;;;0.93;;
42700;SDS011;28316;49.504;8.526;2023-04-24T10:16:50;2.80;;;1.08;;
42700;SDS011;28316;49.504;8.526;2023-04-24T10:19:18;3.47;;;0.80;;
42700;SDS011;28316;49.504;8.526;2023-04-24T10:21:45;0.98;;;0.85;;
42700;SDS011;28316;49.504;8.526;2023-04-24T10:24:18;2.00;;;1.02;;
42700;SDS011;28316;49.504;8.526;2023-04-24T10:26:47;0.93;;;0.77;;
42700;SDS011;28316;49.504;8.526;2023-04-24T10:29:14;1.67;;;0.70;;
42700;SDS011;28316;49.504;8.526;2023-04-24T10:31:43;1.35;;;0.70;;
42700;SDS011;28316;49.504;8.526;2023-04-24T10:34:10;0.70;;;0.28;;
42700;SDS011;28316;49.504;8.526;2023-04-24T10:36:38;1.13;;;0.70;;
42700;SDS011;28316;49.504;8.526;2023-04-24T10:39:26;0.63;;;0.32;;
42700;SDS011;28316;49.504;8.526;2023-04-24T10:41:52;1.92;;;1.23;;
42700;SDS011;28316;49.504;8.526;2023-04-24T10:44:22;1.48;;;0.65;;
42700;SDS011;28316;49.504;8.526;2023-04-24T10:46:52;2.90;;;1.05;;
42700;SDS011;28316;49.504;8.526;2023-04-24T10:49:29;3.83;;;0.90;;
42700;SDS011;28316;49.504;8.526;2023-04-24T10:52:00;3.05;;;1.00;;
42700;SDS011;28316;49.504;8.526;2023-04-24T10:54:44;1.65;;;0.98;;
42700;SDS011;28316;49.504;8.526;2023-04-24T10:59:51;2.22;;;1.08;;
42700;SDS011;28316;49.504;8.526;2023-04-24T11:02:38;1.98;;;1.08;;
42700;SDS011;28316;49.504;8.526;2023-04-24T11:05:05;1.70;;;0.70;;
42700;SDS011;28316;49.504;8.526;2023-04-24T11:10:38;2.83;;;1.85;;
42700;SDS011;28316;49.504;8.526;2023-04-24T11:13:20;1.30;;;0.88;;
42700;SDS011;28316;49.504;8.526;2023-04-24T11:16:11;1.83;;;1.05;;
42700;SDS011;28316;49.504;8.526;2023-04-24T11:18:45;4.80;;;1.15;;
42700;SDS011;28316;49.504;8.526;2023-04-24T11:21:19;0.85;;;0.73;;
42700;SDS011;28316;49.504;8.526;2023-04-24T11:23:47;1.30;;;0.80;;
42700;SDS011;28316;49.504;8.526;2023-04-24T11:26:16;3.75;;;1.40;;
42700;SDS011;28316;49.504;8.526;2023-04-24T11:28:50;1.20;;;0.85;;
42700;SDS011;28316;49.504;8.526;2023-04-24T11:31:33;2.03;;;0.93;;
42700;SDS011;28316;49.504;8.526;2023-04-24T11:34:10;2.28;;;0.93;;
42700;SDS011;28316;49.504;8.526;2023-04-24T11:36:39;3.38;;;1.02;;
42700;SDS011;28316;49.504;8.526;2023-04-24T11:39:07;2.65;;;1.15;;
42700;SDS011;28316;49.504;8.526;2023-04-24T11:41:33;1.55;;;0.77;;
42700;SDS011;28316;49.504;8.526;2023-04-24T11:44:00;1.42;;;1.17;;
42700;SDS011;28316;49.504;8.526;2023-04-24T11:46:30;4.35;;;1.50;;
42700;SDS011;28316;49.504;8.526;2023-04-24T11:48:57;3.55;;;1.90;;
42700;SDS011;28316;49.504;8.526;2023-04-24T11:51:24;2.58;;;1.20;;
42700;SDS011;28316;49.504;8.526;2023-04-24T11:53:52;1.55;;;0.93;;
42700;SDS011;28316;49.504;8.526;2023-04-24T11:56:23;1.90;;;1.25;;
42700;SDS011;28316;49.504;8.526;2023-04-24T11:58:53;2.55;;;1.33;;
42700;SDS011;28316;49.504;8.526;2023-04-24T12:01:19;3.03;;;1.15;;
42700;SDS011;28316;49.504;8.526;2023-04-24T12:03:49;1.08;;;0.70;;
42700;SDS011;28316;49.504;8.526;2023-04-24T12:06:23;5.22;;;1.67;;
42700;SDS011;28316;49.504;8.526;2023-04-24T12:08:50;6.03;;;1.75;;
42700;SDS011;28316;49.504;8.526;2023-04-24T12:11:19;6.25;;;1.20;;
42700;SDS011;28316;49.504;8.526;2023-04-24T12:13:45;1.83;;;1.30;;
42700;SDS011;28316;49.504;8.526;2023-04-24T12:16:11;2.30;;;1.10;;
42700;SDS011;28316;49.504;8.526;2023-04-24T12:18:41;2.30;;;1.48;;
42700;SDS011;28316;49.504;8.526;2023-04-24T12:23:45;1.85;;;0.90;;
42700;SDS011;28316;49.504;8.526;2023-04-24T12:26:18;4.38;;;1.45;;
42700;SDS011;28316;49.504;8.526;2023-04-24T12:28:46;3.22;;;1.55;;
42700;SDS011;28316;49.504;8.526;2023-04-24T12:31:14;5.63;;;1.33;;
42700;SDS011;28316;49.504;8.526;2023-04-24T12:33:41;2.15;;;1.15;;
42700;SDS011;28316;49.504;8.526;2023-04-24T12:36:09;6.18;;;1.08;;
42700;SDS011;28316;49.504;8.526;2023-04-24T12:38:37;5.43;;;1.48;;
42700;SDS011;28316;49.504;8.526;2023-04-24T12:41:07;1.92;;;1.23;;
42700;SDS011;28316;49.504;8.526;2023-04-24T12:43:35;2.95;;;1.77;;
42700;SDS011;28316;49.504;8.526;2023-04-24T12:46:01;2.70;;;1.40;;
42700;SDS011;28316;49.504;8.526;2023-04-24T12:48:28;9.70;;;1.50;;
42700;SDS011;28316;49.504;8.526;2023-04-24T12:50:54;2.40;;;1.23;;
42700;SDS011;28316;49.504;8.526;2023-04-24T12:53:22;3.05;;;1.45;;
42700;SDS011;28316;49.504;8.526;2023-04-24T12:55:48;2.25;;;1.55;;
42700;SDS011;28316;49.504;8.526;2023-04-24T12:58:20;2.90;;;1.55;;
42700;SDS011;28316;49.504;8.526;2023-04-24T13:00:47;3.05;;;1.60;;
42700;SDS011;28316;49.504;8.526;2023-04-24T13:03:13;4.65;;;2.15;;
42700;SDS011;28316;49.504;8.526;2023-04-24T13:05:39;2.05;;;1.10;;
42700;SDS011;28316;49.504;8.526;2023-04-24T13:08:08;1.73;;;1.33;;
42700;SDS011;28316;49.504;8.526;2023-04-24T13:10:34;4.63;;;1.63;;
42700;SDS011;28316;49.504;8.526;2023-04-24T13:13:00;2.13;;;1.20;;
42700;SDS011;28316;49.504;8.526;2023-04-24T13:15:26;2.00;;;1.08;;
42700;SDS011;28316;49.504;8.526;2023-04-24T13:17:51;4.90;;;1.15;;
42700;SDS011;28316;49.504;8.526;2023-04-24T13:20:17;12.90;;;1.52;;
42700;SDS011;28316;49.504;8.526;2023-04-24T13:22:43;3.33;;;1.30;;
42700;SDS011;28316;49.504;8.526;2023-04-24T13:25:09;3.90;;;1.75;;
42700;SDS011;28316;49.504;8.526;2023-04-24T13:27:35;7.38;;;1.98;;
42700;SDS011;28316;49.504;8.526;2023-04-24T13:30:03;3.30;;;1.38;;
42700;SDS011;28316;49.504;8.526;2023-04-24T13:32:29;2.72;;;1.10;;
42700;SDS011;28316;49.504;8.526;2023-04-24T13:34:56;1.50;;;0.98;;
42700;SDS011;28316;49.504;8.526;2023-04-24T13:37:22;3.08;;;1.40;;
42700;SDS011;28316;49.504;8.526;2023-04-24T13:39:47;5.45;;;1.35;;
42700;SDS011;28316;49.504;8.526;2023-04-24T13:42:13;1.80;;;0.98;;
42700;SDS011;28316;49.504;8.526;2023-04-24T13:44:39;3.17;;;1.58;;
42700;SDS011;28316;49.504;8.526;2023-04-24T13:47:05;5.97;;;2.42;;
42700;SDS011;28316;49.504;8.526;2023-04-24T13:49:31;2.35;;;1.27;;
42700;SDS011;28316;49.504;8.526;2023-04-24T13:51:56;2.30;;;1.30;;
42700;SDS011;28316;49.504;8.526;2023-04-24T13:54:22;6.80;;;1.50;;
42700;SDS011;28316;49.504;8.526;2023-04-24T13:56:50;2.30;;;1.05;;
42700;SDS011;28316;49.504;8.526;2023-04-24T13:59:17;2.20;;;1.02;;
42700;SDS011;28316;49.504;8.526;2023-04-24T14:01:44;6.32;;;1.30;;
42700;SDS011;28316;49.504;8.526;2023-04-24T14:04:10;1.13;;;0.85;;
42700;SDS011;28316;49.504;8.526;2023-04-24T14:06:36;2.05;;;1.10;;
42700;SDS011;28316;49.504;8.526;2023-04-24T14:09:01;2.00;;;1.35;;
42700;SDS011;28316;49.504;8.526;2023-04-24T14:11:27;2.10;;;1.08;;
42700;SDS011;28316;49.504;8.526;2023-04-24T14:13:54;2.00;;;1.58;;
42700;SDS011;28316;49.504;8.526;2023-04-24T14:16:23;3.40;;;1.63;;
42700;SDS011;28316;49.504;8.526;2023-04-24T14:18:48;1.63;;;0.98;;
42700;SDS011;28316;49.504;8.526;2023-04-24T14:21:15;2.53;;;1.15;;
42700;SDS011;28316;49.504;8.526;2023-04-24T14:23:41;2.78;;;1.48;;
42700;SDS011;28316;49.504;8.526;2023-04-24T14:26:06;4.82;;;1.67;;
42700;SDS011;28316;49.504;8.526;2023-04-24T14:28:32;2.35;;;1.20;;
42700;SDS011;28316;49.504;8.526;2023-04-24T14:30:58;2.80;;;1.42;;
42700;SDS011;28316;49.504;8.526;2023-04-24T14:33:24;1.83;;;0.98;;
42700;SDS011;28316;49.504;8.526;2023-04-24T14:35:50;1.60;;;1.10;;
42700;SDS011;28316;49.504;8.526;2023-04-24T14:38:15;2.13;;;1.00;;
42700;SDS011;28316;49.504;8.526;2023-04-24T14:40:41;2.03;;;0.88;;
42700;SDS011;28316;49.504;8.526;2023-04-24T14:43:07;1.52;;;0.90;;
42700;SDS011;28316;49.504;8.526;2023-04-24T14:45:33;4.60;;;1.25;;
42700;SDS011;28316;49.504;8.526;2023-04-24T14:47:59;1.38;;;0.90;;
42700;SDS011;28316;49.504;8.526;2023-04-24T14:50:24;1.45;;;0.63;;
42700;SDS011;28316;49.504;8.526;2023-04-24T14:52:53;1.75;;;0.80;;
42700;SDS011;28316;49.504;8.526;2023-04-24T14:55:22;1.40;;;1.00;;
42700;SDS011;28316;49.504;8.526;2023-04-24T14:57:49;1.95;;;1.02;;